Time,TemperatureF,DewpointF,PressureIn,WindDirection,WindDirectionDegrees,WindSpeedMPH,WindSpeedGustMPH,Humidity,HourlyPrecipIn,Conditions,Clouds,dailyrainin,SoftwareType,DateUTC
2013-03-12 00:02:00,29.0,25.0,30.04,WSW,257,0.0,-999.0,86,-99.99,,,-99.99,,2013-03-12 05:02:00,
2013-03-12 00:12:00,29.0,25.0,30.04,WSW,257,0.0,-999.0,86,-99.99,,,-99.99,,2013-03-12 05:12:00,
2013-03-12 00:22:00,28.0,24.0,30.04,WSW,257,0.0,-999.0,86,-99.99,,,-99.99,,2013-03-12 05:22:00,
2013-03-12 00:32:00,28.0,24.0,30.04,WSW,257,0.0,-999.0,86,-99.99,,,-99.99,,2013-03-12 05:32:00,
2013-03-12 00:42:00,28.0,24.0,30.04,WSW,257,0.0,-999.0,86,-99.99,,,-99.99,,2013-03-12 05:42:00,
2013-03-12 00:52:00,28.0,25.0,30.03,WSW,257,0.0,-999.0,87,-99.99,,,-99.99,,2013-03-12 05:52:00,
2013-03-12 01:02:00,28.0,25.0,30.03,WSW,257,0.0,-999.0,87,-99.99,,,-99.99,,2013-03-12 06:02:00,
2013-03-12 01:12:00,28.0,25.0,30.03,WSW,257,0.0,-999.0,87,-99.99,,,-99.99,,2013-03-12 06:12:00,
2013-03-12 01:22:00,27.0,24.0,30.03,WSW,257,0.0,-999.0,88,-99.99,,,-99.99,,2013-03-12 06:22:00,
2013-03-12 01:32:00,27.0,24.0,30.05,WSW,257,0.0,-999.0,88,-99.99,,,-99.99,,2013-03-12 06:32:00,
2013-03-12 01:42:00,27.0,24.0,30.05,WSW,257,0.0,-999.0,88,-99.99,,,-99.99,,2013-03-12 06:42:00,
2013-03-12 01:52:00,27.0,24.0,30.05,WSW,257,0.0,-999.0,88,-99.99,,,-99.99,,2013-03-12 06:52:00,
2013-03-12 02:02:00,27.0,24.0,30.06,WSW,257,0.0,-999.0,88,-99.99,,,-99.99,,2013-03-12 07:02:00,
2013-03-12 02:12:00,27.0,24.0,30.06,WSW,257,0.0,-999.0,88,-99.99,,,-99.99,,2013-03-12 07:12:00,
2013-03-12 02:22:00,26.0,23.0,30.06,WSW,257,0.0,-999.0,89,-99.99,,,-99.99,,2013-03-12 07:22:00,
2013-03-12 02:32:00,26.0,23.0,30.06,WSW,257,0.0,-999.0,88,-99.99,,,-99.99,,2013-03-12 07:32:00,
2013-03-12 02:42:00,26.0,23.0,30.06,WSW,257,0.0,-999.0,88,-99.99,,,-99.99,,2013-03-12 07:42:00,
2013-03-12 02:52:00,26.0,23.0,30.06,WSW,257,0.0,-999.0,89,-99.99,,,-99.99,,2013-03-12 07:52:00,
2013-03-12 03:02:00,25.0,22.0,30.06,WSW,257,0.0,-999.0,89,-99.99,,,-99.99,,2013-03-12 08:02:00,
2013-03-12 03:13:00,25.0,22.0,30.06,WSW,257,0.0,-999.0,89,-99.99,,,-99.99,,2013-03-12 08:13:00,
2013-03-12 03:22:00,25.0,22.0,30.07,WSW,257,0.0,-999.0,89,-99.99,,,-99.99,,2013-03-12 08:22:00,
2013-03-12 03:33:00,25.0,22.0,30.07,WSW,257,0.0,-999.0,90,-99.99,,,-99.99,,2013-03-12 08:33:00,
2013-03-12 03:42:00,25.0,22.0,30.07,WSW,257,0.0,-999.0,90,-99.99,,,-99.99,,2013-03-12 08:42:00,
2013-03-12 03:52:00,25.0,22.0,30.07,WSW,257,0.0,-999.0,90,-99.99,,,-99.99,,2013-03-12 08:52:00,
2013-03-12 04:03:00,25.0,22.0,30.07,WSW,257,0.0,-999.0,90,-99.99,,,-99.99,,2013-03-12 09:03:00,
2013-03-12 04:12:00,25.0,22.0,30.07,WSW,257,0.0,-999.0,90,-99.99,,,-99.99,,2013-03-12 09:12:00,
2013-03-12 04:22:00,25.0,22.0,30.06,WSW,257,0.0,-999.0,90,-99.99,,,-99.99,,2013-03-12 09:22:00,
2013-03-12 04:32:00,24.0,22.0,30.06,WSW,257,0.0,-999.0,90,-99.99,,,-99.99,,2013-03-12 09:32:00,
2013-03-12 04:42:00,24.0,22.0,30.06,WSW,257,0.0,-999.0,90,-99.99,,,-99.99,,2013-03-12 09:42:00,
2013-03-12 04:52:00,24.0,22.0,30.06,WSW,257,0.0,-999.0,90,-99.99,,,-99.99,,2013-03-12 09:52:00,
2013-03-12 05:02:00,24.0,22.0,30.05,WSW,257,1.0,-999.0,90,-99.99,,,-99.99,,2013-03-12 10:02:00,
2013-03-12 05:12:00,24.0,22.0,30.05,WSW,257,1.0,-999.0,90,-99.99,,,-99.99,,2013-03-12 10:12:00,
2013-03-12 05:22:00,24.0,22.0,30.06,WSW,257,0.0,-999.0,90,-99.99,,,-99.99,,2013-03-12 10:22:00,
2013-03-12 05:32:00,24.0,22.0,30.06,WSW,257,0.0,-999.0,90,-99.99,,,-99.99,,2013-03-12 10:32:00,
2013-03-12 05:42:00,24.0,22.0,30.06,WSW,257,0.0,-999.0,90,-99.99,,,-99.99,,2013-03-12 10:42:00,
2013-03-12 05:52:00,24.0,22.0,30.06,WSW,257,0.0,-999.0,90,-99.99,,,-99.99,,2013-03-12 10:52:00,
2013-03-12 06:02:00,24.0,22.0,30.08,WSW,257,0.0,-999.0,90,-99.99,,,-99.99,,2013-03-12 11:02:00,
2013-03-12 06:12:00,24.0,22.0,30.08,WSW,257,0.0,-999.0,90,-99.99,,,-99.99,,2013-03-12 11:12:00,
2013-03-12 06:22:00,24.0,22.0,30.10,WSW,257,0.0,-999.0,91,-99.99,,,-99.99,,2013-03-12 11:22:00,
2013-03-12 06:32:00,24.0,22.0,30.09,WSW,257,0.0,-999.0,91,-99.99,,,-99.99,,2013-03-12 11:32:00,
2013-03-12 06:42:00,24.0,22.0,30.09,WSW,257,0.0,-999.0,91,-99.99,,,-99.99,,2013-03-12 11:42:00,
2013-03-12 06:52:00,24.0,22.0,30.10,WSW,257,0.0,-999.0,91,-99.99,,,-99.99,,2013-03-12 11:52:00,
2013-03-12 07:02:00,24.0,22.0,30.12,WSW,257,0.0,-999.0,91,-99.99,,,-99.99,,2013-03-12 12:02:00,
2013-03-12 07:12:00,24.0,22.0,30.12,WSW,257,0.0,-999.0,91,-99.99,,,-99.99,,2013-03-12 12:12:00,
2013-03-12 07:22:00,24.0,22.0,30.13,WSW,257,0.0,-999.0,91,-99.99,,,-99.99,,2013-03-12 12:22:00,
2013-03-12 07:32:00,24.0,22.0,30.14,WSW,257,0.0,-999.0,91,-99.99,,,-99.99,,2013-03-12 12:32:00,
2013-03-12 07:42:00,24.0,22.0,30.14,WSW,257,0.0,-999.0,91,-99.99,,,-99.99,,2013-03-12 12:42:00,
2013-03-12 07:52:00,25.0,23.0,30.14,WSW,257,0.0,-999.0,91,-99.99,,,-99.99,,2013-03-12 12:52:00,
2013-03-12 08:02:00,25.0,23.0,30.16,WSW,257,0.0,-999.0,91,-99.99,,,-99.99,,2013-03-12 13:02:00,
2013-03-12 08:12:00,25.0,23.0,30.16,WSW,257,0.0,-999.0,91,-99.99,,,-99.99,,2013-03-12 13:12:00,
2013-03-12 08:22:00,26.0,24.0,30.15,WSW,257,1.0,-999.0,91,-99.99,,,-99.99,,2013-03-12 13:22:00,
2013-03-12 08:32:00,26.0,24.0,30.15,WSW,257,0.0,-999.0,92,-99.99,,,-99.99,,2013-03-12 13:32:00,
2013-03-12 08:42:00,26.0,24.0,30.15,WSW,257,0.0,-999.0,92,-99.99,,,-99.99,,2013-03-12 13:42:00,
2013-03-12 08:52:00,27.0,25.0,30.16,WSW,257,0.0,-999.0,92,-99.99,,,-99.99,,2013-03-12 13:52:00,
2013-03-12 09:02:00,28.0,26.0,30.16,WSW,257,0.0,-999.0,91,-99.99,,,-99.99,,2013-03-12 14:02:00,
2013-03-12 09:12:00,28.0,26.0,30.16,WSW,257,0.0,-999.0,91,-99.99,,,-99.99,,2013-03-12 14:12:00,
2013-03-12 09:22:00,30.0,28.0,30.16,WSW,257,0.0,-999.0,92,-99.99,,,-99.99,,2013-03-12 14:22:00,
2013-03-12 09:32:00,31.0,28.0,30.17,WSW,257,0.0,-999.0,89,-99.99,,,-99.99,,2013-03-12 14:32:00,
2013-03-12 09:42:00,31.0,28.0,30.17,WSW,257,0.0,-999.0,89,-99.99,,,-99.99,,2013-03-12 14:42:00,
2013-03-12 09:52:00,32.0,29.0,30.17,WSW,257,0.0,-999.0,87,-99.99,,,-99.99,,2013-03-12 14:52:00,
2013-03-12 10:02:00,34.0,30.0,30.18,WSW,257,0.0,-999.0,84,-99.99,,,-99.99,,2013-03-12 15:02:00,
2013-03-12 10:12:00,34.0,30.0,30.18,WSW,257,0.0,-999.0,84,-99.99,,,-99.99,,2013-03-12 15:12:00,
2013-03-12 10:22:00,35.0,30.0,30.19,WSW,257,0.0,-999.0,81,-99.99,,,-99.99,,2013-03-12 15:22:00,
2013-03-12 10:32:00,36.0,29.0,30.19,WSW,257,0.0,-999.0,77,-99.99,,,-99.99,,2013-03-12 15:32:00,
2013-03-12 10:42:00,36.0,29.0,30.19,WSW,257,0.0,-999.0,77,-99.99,,,-99.99,,2013-03-12 15:42:00,
2013-03-12 10:52:00,38.0,31.0,30.19,WSW,257,0.0,-999.0,76,-99.99,,,-99.99,,2013-03-12 15:52:00,
2013-03-12 11:02:00,38.0,31.0,30.19,WSW,257,0.0,-999.0,76,-99.99,,,-99.99,,2013-03-12 16:02:00,
2013-03-12 11:12:00,38.0,31.0,30.19,WSW,257,0.0,-999.0,76,-99.99,,,-99.99,,2013-03-12 16:12:00,
2013-03-12 11:22:00,41.0,28.0,30.19,WSW,257,0.0,-999.0,60,-99.99,,,-99.99,,2013-03-12 16:22:00,
2013-03-12 11:33:00,43.0,28.0,30.20,WSW,257,0.0,-999.0,54,-99.99,,,-99.99,,2013-03-12 16:33:00,
2013-03-12 11:43:00,43.0,28.0,30.20,WSW,257,0.0,-999.0,54,-99.99,,,-99.99,,2013-03-12 16:43:00,
2013-03-12 11:52:00,45.0,28.0,30.20,WSW,257,0.0,-999.0,51,-99.99,,,-99.99,,2013-03-12 16:52:00,
2013-03-12 12:02:00,46.0,28.0,30.19,WSW,257,0.0,-999.0,49,-99.99,,,-99.99,,2013-03-12 17:02:00,
2013-03-12 12:12:00,46.0,28.0,30.19,WSW,257,0.0,-999.0,49,-99.99,,,-99.99,,2013-03-12 17:12:00,
2013-03-12 12:22:00,48.0,27.0,30.19,WSW,240,0.0,-999.0,44,-99.99,,,-99.99,,2013-03-12 17:22:00,
2013-03-12 12:33:00,48.0,27.0,30.19,WSW,240,1.0,-999.0,44,-99.99,,,-99.99,,2013-03-12 17:33:00,
2013-03-12 12:43:00,48.0,27.0,30.19,WSW,240,1.0,-999.0,44,-99.99,,,-99.99,,2013-03-12 17:43:00,
2013-03-12 12:53:00,50.0,28.0,30.18,WSW,240,0.0,-999.0,42,-99.99,,,-99.99,,2013-03-12 17:53:00,
2013-03-12 13:02:00,52.0,26.0,30.18,NNE,16,4.0,-999.0,36,-99.99,,,-99.99,,2013-03-12 18:02:00,
2013-03-12 13:13:00,53.0,27.0,30.18,NW,318,4.0,-999.0,36,-99.99,,,-99.99,,2013-03-12 18:13:00,
2013-03-12 13:23:00,53.0,27.0,30.18,NW,318,4.0,-999.0,36,-99.99,,,-99.99,,2013-03-12 18:23:00,
2013-03-12 13:33:00,53.0,25.0,30.17,SW,232,4.0,-999.0,33,-99.99,,,-99.99,,2013-03-12 18:33:00,
2013-03-12 13:42:00,53.0,25.0,30.17,SW,232,4.0,-999.0,33,-99.99,,,-99.99,,2013-03-12 18:42:00,
2013-03-12 13:53:00,53.0,25.0,30.17,NW,306,4.0,-999.0,34,-99.99,,,-99.99,,2013-03-12 18:53:00,
2013-03-12 14:03:00,53.0,25.0,30.16,NW,308,4.0,-999.0,34,-99.99,,,-99.99,,2013-03-12 19:03:00,
2013-03-12 14:13:00,53.0,25.0,30.16,NW,308,4.0,-999.0,34,-99.99,,,-99.99,,2013-03-12 19:13:00,
2013-03-12 14:22:00,54.0,28.0,30.16,WNW,296,6.0,-999.0,36,-99.99,,,-99.99,,2013-03-12 19:22:00,
2013-03-12 14:33:00,54.0,26.0,30.15,WNW,299,3.0,-999.0,34,-99.99,,,-99.99,,2013-03-12 19:33:00,
2013-03-12 14:43:00,54.0,26.0,30.15,WNW,299,3.0,-999.0,34,-99.99,,,-99.99,,2013-03-12 19:43:00,
2013-03-12 14:53:00,55.0,28.0,30.15,WSW,245,4.0,-999.0,35,-99.99,,,-99.99,,2013-03-12 19:53:00,
2013-03-12 15:02:00,55.0,27.0,30.14,WNW,286,5.0,-999.0,34,-99.99,,,-99.99,,2013-03-12 20:02:00,
2013-03-12 15:12:00,55.0,27.0,30.14,WNW,286,5.0,-999.0,34,-99.99,,,-99.99,,2013-03-12 20:12:00,
2013-03-12 15:22:00,56.0,29.0,30.14,WSW,258,4.0,-999.0,36,-99.99,,,-99.99,,2013-03-12 20:22:00,
2013-03-12 15:32:00,57.0,28.0,30.13,West,271,5.0,-999.0,33,-99.99,,,-99.99,,2013-03-12 20:32:00,
2013-03-12 15:42:00,57.0,28.0,30.13,West,271,5.0,-999.0,33,-99.99,,,-99.99,,2013-03-12 20:42:00,
2013-03-12 15:52:00,57.0,27.0,30.12,WNW,296,6.0,-999.0,31,-99.99,,,-99.99,,2013-03-12 20:52:00,
2013-03-12 16:02:00,57.0,27.0,30.12,NNW,333,5.0,-999.0,31,-99.99,,,-99.99,,2013-03-12 21:02:00,
2013-03-12 16:12:00,57.0,27.0,30.12,NNW,333,5.0,-999.0,31,-99.99,,,-99.99,,2013-03-12 21:12:00,
2013-03-12 16:22:00,58.0,29.0,30.12,WNW,289,5.0,-999.0,33,-99.99,,,-99.99,,2013-03-12 21:22:00,
2013-03-12 16:32:00,58.0,29.0,30.12,WNW,289,5.0,-999.0,33,-99.99,,,-99.99,,2013-03-12 21:32:00,
2013-03-12 16:43:00,58.0,29.0,30.12,WNW,289,5.0,-999.0,33,-99.99,,,-99.99,,2013-03-12 21:43:00,
2013-03-12 16:52:00,58.0,28.0,30.11,WSW,240,7.0,-999.0,32,-99.99,,,-99.99,,2013-03-12 21:52:00,
2013-03-12 17:02:00,58.0,28.0,30.11,WSW,253,10.0,-999.0,31,-99.99,,,-99.99,,2013-03-12 22:02:00,
2013-03-12 17:12:00,58.0,28.0,30.11,WSW,253,10.0,-999.0,31,-99.99,,,-99.99,,2013-03-12 22:12:00,
2013-03-12 17:22:00,58.0,28.0,30.11,West,261,6.0,-999.0,32,-99.99,,,-99.99,,2013-03-12 22:22:00,
2013-03-12 17:33:00,58.0,28.0,30.11,West,266,7.0,-999.0,31,-99.99,,,-99.99,,2013-03-12 22:33:00,
2013-03-12 17:42:00,58.0,28.0,30.11,West,266,7.0,-999.0,31,-99.99,,,-99.99,,2013-03-12 22:42:00,
2013-03-12 17:52:00,58.0,29.0,30.11,WSW,250,7.0,-999.0,33,-99.99,,,-99.99,,2013-03-12 22:52:00,
2013-03-12 18:02:00,58.0,28.0,30.11,West,276,7.0,-999.0,31,-99.99,,,-99.99,,2013-03-12 23:02:00,
2013-03-12 18:12:00,58.0,28.0,30.11,West,276,7.0,-999.0,31,-99.99,,,-99.99,,2013-03-12 23:12:00,
2013-03-12 18:22:00,58.0,28.0,30.11,WSW,239,4.0,-999.0,32,-99.99,,,-99.99,,2013-03-12 23:22:00,
2013-03-12 18:34:00,56.0,27.0,30.12,WNW,282,5.0,-999.0,33,-99.99,,,-99.99,,2013-03-12 23:34:00,
2013-03-12 18:43:00,56.0,27.0,30.12,WNW,282,5.0,-999.0,33,-99.99,,,-99.99,,2013-03-12 23:43:00,
2013-03-12 18:52:00,56.0,27.0,30.12,SW,234,5.0,-999.0,33,-99.99,,,-99.99,,2013-03-12 23:52:00,
2013-03-12 19:03:00,56.0,28.0,30.13,WSW,255,5.0,-999.0,34,-99.99,,,-99.99,,2013-03-13 00:03:00,
2013-03-12 19:12:00,56.0,28.0,30.13,WSW,255,5.0,-999.0,34,-99.99,,,-99.99,,2013-03-13 00:12:00,
2013-03-12 19:23:00,55.0,29.0,30.14,West,277,3.0,-999.0,37,-99.99,,,-99.99,,2013-03-13 00:23:00,
2013-03-12 19:33:00,53.0,29.0,30.14,West,267,3.0,-999.0,39,-99.99,,,-99.99,,2013-03-13 00:33:00,
2013-03-12 19:42:00,53.0,29.0,30.14,West,267,3.0,-999.0,39,-99.99,,,-99.99,,2013-03-13 00:42:00,
2013-03-12 19:52:00,52.0,29.0,30.15,West,270,1.0,-999.0,41,-99.99,,,-99.99,,2013-03-13 00:52:00,
2013-03-12 20:03:00,51.0,29.0,30.16,WNW,290,2.0,-999.0,42,-99.99,,,-99.99,,2013-03-13 01:03:00,
2013-03-12 20:12:00,51.0,29.0,30.16,WNW,290,2.0,-999.0,42,-99.99,,,-99.99,,2013-03-13 01:12:00,
2013-03-12 20:22:00,51.0,30.0,30.16,West,279,1.0,-999.0,44,-99.99,,,-99.99,,2013-03-13 01:22:00,
2013-03-12 20:32:00,50.0,29.0,30.17,West,278,0.0,-999.0,45,-99.99,,,-99.99,,2013-03-13 01:32:00,
2013-03-12 20:42:00,50.0,29.0,30.17,West,278,0.0,-999.0,45,-99.99,,,-99.99,,2013-03-13 01:42:00,
2013-03-12 20:52:00,48.0,30.0,30.18,West,278,0.0,-999.0,49,-99.99,,,-99.99,,2013-03-13 01:52:00,
2013-03-12 21:02:00,47.0,30.0,30.18,West,273,1.0,-999.0,52,-99.99,,,-99.99,,2013-03-13 02:02:00,
2013-03-12 21:12:00,47.0,30.0,30.18,West,273,1.0,-999.0,52,-99.99,,,-99.99,,2013-03-13 02:12:00,
2013-03-12 21:22:00,46.0,32.0,30.19,West,273,0.0,-999.0,57,-99.99,,,-99.99,,2013-03-13 02:22:00,
2013-03-12 21:32:00,45.0,31.0,30.20,West,273,0.0,-999.0,57,-99.99,,,-99.99,,2013-03-13 02:32:00,
2013-03-12 21:42:00,45.0,31.0,30.20,West,273,0.0,-999.0,57,-99.99,,,-99.99,,2013-03-13 02:42:00,
2013-03-12 21:52:00,46.0,29.0,30.21,WSW,255,1.0,-999.0,52,-99.99,,,-99.99,,2013-03-13 02:52:00,
2013-03-12 22:02:00,47.0,30.0,30.22,West,276,2.0,-999.0,51,-99.99,,,-99.99,,2013-03-13 03:02:00,
2013-03-12 22:12:00,47.0,30.0,30.22,West,276,2.0,-999.0,51,-99.99,,,-99.99,,2013-03-13 03:12:00,
2013-03-12 22:22:00,47.0,29.0,30.22,WSW,257,1.0,-999.0,50,-99.99,,,-99.99,,2013-03-13 03:22:00,
2013-03-12 22:32:00,46.0,28.0,30.24,West,279,3.0,-999.0,49,-99.99,,,-99.99,,2013-03-13 03:32:00,
2013-03-12 22:42:00,46.0,28.0,30.24,West,279,3.0,-999.0,49,-99.99,,,-99.99,,2013-03-13 03:42:00,
2013-03-12 22:52:00,46.0,27.0,30.24,West,275,3.0,-999.0,47,-99.99,,,-99.99,,2013-03-13 03:52:00,
2013-03-12 23:03:00,46.0,26.0,30.25,West,269,2.0,-999.0,46,-99.99,,,-99.99,,2013-03-13 04:03:00,
2013-03-12 23:13:00,46.0,26.0,30.25,West,269,2.0,-999.0,46,-99.99,,,-99.99,,2013-03-13 04:13:00,
2013-03-12 23:22:00,46.0,26.0,30.27,West,279,2.0,-999.0,46,-99.99,,,-99.99,,2013-03-13 04:22:00,
2013-03-12 23:32:00,45.0,26.0,30.27,West,281,1.0,-999.0,47,-99.99,,,-99.99,,2013-03-13 04:32:00,
2013-03-12 23:42:00,45.0,26.0,30.27,West,281,1.0,-999.0,47,-99.99,,,-99.99,,2013-03-13 04:42:00,
2013-03-12 23:52:00,45.0,24.0,30.27,NW,304,2.0,-999.0,44,-99.99,,,-99.99,,2013-03-13 04:52:00,